Rocky Mountain Metropolitan Airport
KBJC : now visible

Airfield :











YOU CAN JOIN US ON...

 
LOGIN :

Register | Disclaimer

   EN    FR    IT 

 









Legend :    VFR   Marginal VFR   IFR   Intensive IFR   Very Intensive IFR
Visi :
Ceiling :
>= 8 km
>= 3000ft
5 to 8 km
1000 to 3000 ft
1500m to 5 km
500 to 1000 ft
800 to 1500m
200 to 500 ft
< 800m
< 200 ft
Symbols :   Thunderstorms  Fog  Heavy snow  Heavy precipitations  Wind > 20 kt






- Airport Elevation : 5673 ft


KBJC - Rocky Mountain Metropolitan

CURRENT METAR :
  • 101251Z AUTO 00000KT 10SM CLR 06/00 A2995 RMK AO2

EXPIRED METARs :
  • 101229Z AUTO 00000KT 10SM SCT110 04/00 A2995 RMK AO2
  • 101211Z AUTO 23003KT 10SM SCT110 04/00 A2995 RMK AO2
  • 101155Z 00000KT 10SM SCT110 05/M01 A2995
  • 101130Z AUTO 00000KT 10SM CLR 05/00 A2995 RMK AO2
  • 101112Z AUTO 24003KT 10SM CLR 05/00 A2996 RMK AO2
  • 101054Z AUTO 27003KT 10SM SCT120 05/00 A2997 RMK AO2
  • 101030Z AUTO 28003KT 10SM CLR 04/00 A2998 RMK AO2

TAF KBJC
Valid from the 10 at 12:00 until the 11 at 12:00 UTC


101132Z 1012/1112 VRB05KT P6SM SCT080 SCT120
FM101800 29012KT P6SM VCSH BKN080 BKN150
TEMPO 1021/1101 VRB20G30KT
FM110100 15011KT P6SM SCT080 SCT150
FM110500 25007KT P6SM SCT150



MET'MAP, your aeronautical weather chart ! - Copyright ORBIFLY December 2007 - Disclaimer

ORBIFLY MET'MAP TEAM :

Programming & Development : Alexandra Zaïnal
Concept & original design : Baudouin d'Aumeries
Assistance for programming : Marc-Olivier Méhu
Technical & hardware support : Manuel Goepfert

Contact : metmap@orbifly.com




SOURCES & CREDITS :

   NOAA       Earth
Advisory